Planura, Brazil
Current Conditions -  °F | °C
As of 8:00 PM on Wednesday 22 Oct 2014 (Local Time) from SBUR Reporting Station
Scattered Clouds Scattered Clouds  
Wind Chill: 79°   Ceiling: Unl
Heat Index: 80°   Visibility: 6mi
Dew Point: 59°   Wind: 6mph
Humidity: 51%   Direction: 10°N
Pressure: 30.03"   Gusts: NA
Location:  20.14°S, 48.7°W
Report Text: SBUR 222200Z 01005KT 9000 SCT045 SCT090 26/15 Q1017
Loading
Personal Weather Stations






























Interactive Weather Map
Tropical Storm Tracking
New forecast layout! Learn more

10-Day Weather Forecast

Advertisements
Track Severe Weather on mobile